LIC1107 BIAR-BIKF
Flight info
| Callsign | LIC1107 |
|---|---|
| Flight time | 0h 36m |
| Altitude | 28000 |
| Route | ASKUR1D ASKUR Y193 REKVA DCT DEVUD DEVUD3M |
| Aircraft | A319/M-SDE3FGHIRWY/LB1 |
Departure
| Time | 2026-04-26 17:22 |
|---|---|
| Airport | Akureyri International Airport (BIAR) |
Arrival
| Time | 2026-04-26 17:59 |
|---|---|
| Airport | Keflavik International Airport (BIKF) |
| Time | Latitude | Longitude | Altitude | Speed | Heading |
|---|---|---|---|---|---|
| 2026-04-26 17:00 | 65.65452 | -18.07489 | 21 ft | 0 kts | 355° |
| 2026-04-26 17:18 | 65.65453 | -18.07489 | 21 ft | 1 kts | 355° |
| 2026-04-26 17:18 | 65.65471 | -18.07440 | 21 ft | 6 kts | 62° |
| 2026-04-26 17:18 | 65.65480 | -18.07321 | 20 ft | 9 kts | 85° |
| 2026-04-26 17:18 | 65.65518 | -18.07182 | 20 ft | 12 kts | 10° |
| 2026-04-26 17:19 | 65.65731 | -18.07217 | 20 ft | 19 kts | 355° |
| 2026-04-26 17:19 | 65.65875 | -18.07245 | 20 ft | 23 kts | 355° |
| 2026-04-26 17:19 | 65.66047 | -18.07277 | 21 ft | 27 kts | 356° |
| 2026-04-26 17:20 | 65.66248 | -18.07313 | 20 ft | 31 kts | 356° |
| 2026-04-26 17:20 | 65.66323 | -18.07326 | 20 ft | 32 kts | 355° |
| 2026-04-26 17:20 | 65.66639 | -18.07394 | 20 ft | 27 kts | 356° |
| 2026-04-26 17:20 | 65.66788 | -18.07424 | 20 ft | 15 kts | 342° |
| 2026-04-26 17:21 | 65.66851 | -18.07413 | 20 ft | 6 kts | 104° |
| 2026-04-26 17:21 | 65.66813 | -18.07410 | 24 ft | 8 kts | 186° |
| 2026-04-26 17:21 | 65.66744 | -18.07409 | 20 ft | 15 kts | 175° |
| 2026-04-26 17:21 | 65.66350 | -18.07331 | 20 ft | 99 kts | 175° |
| 2026-04-26 17:22 | 65.65417 | -18.07150 | 27 ft | 167 kts | 175° |
| 2026-04-26 17:22 | 65.64216 | -18.06968 | 541 ft | 176 kts | 178° |
| 2026-04-26 17:22 | 65.62999 | -18.06825 | 1388 ft | 174 kts | 176° |
| 2026-04-26 17:22 | 65.61797 | -18.06629 | 2151 ft | 170 kts | 175° |
| 2026-04-26 17:23 | 65.60616 | -18.06582 | 2777 ft | 173 kts | 186° |
| 2026-04-26 17:23 | 65.59387 | -18.07203 | 3192 ft | 191 kts | 198° |
| 2026-04-26 17:23 | 65.58032 | -18.08326 | 3535 ft | 220 kts | 200° |
| 2026-04-26 17:23 | 65.56555 | -18.09588 | 4326 ft | 228 kts | 201° |
| 2026-04-26 17:24 | 65.55037 | -18.10874 | 5243 ft | 233 kts | 201° |
| 2026-04-26 17:24 | 65.53511 | -18.12159 | 6162 ft | 237 kts | 202° |
| 2026-04-26 17:24 | 65.51940 | -18.13482 | 7059 ft | 242 kts | 202° |
| 2026-04-26 17:24 | 65.50337 | -18.14829 | 7931 ft | 246 kts | 202° |
| 2026-04-26 17:25 | 65.48714 | -18.16262 | 8818 ft | 250 kts | 208° |
| 2026-04-26 17:25 | 65.47221 | -18.18525 | 9438 ft | 263 kts | 220° |
| 2026-04-26 17:25 | 65.45731 | -18.21290 | 10058 ft | 275 kts | 221° |
| 2026-04-26 17:25 | 65.44164 | -18.24217 | 10424 ft | 297 kts | 220° |
| 2026-04-26 17:26 | 65.42469 | -18.27379 | 10650 ft | 319 kts | 220° |
| 2026-04-26 17:26 | 65.40684 | -18.30685 | 11207 ft | 328 kts | 220° |
| 2026-04-26 17:26 | 65.38860 | -18.34039 | 11987 ft | 332 kts | 220° |
| 2026-04-26 17:26 | 65.37642 | -18.36275 | 12496 ft | 334 kts | 219° |
| 2026-04-26 17:27 | 65.35789 | -18.39675 | 13238 ft | 337 kts | 219° |
| 2026-04-26 17:27 | 65.33914 | -18.43111 | 13948 ft | 341 kts | 219° |
| 2026-04-26 17:27 | 65.32021 | -18.46572 | 14589 ft | 344 kts | 219° |
| 2026-04-26 17:27 | 65.30112 | -18.50052 | 15251 ft | 346 kts | 219° |
| 2026-04-26 17:28 | 65.28187 | -18.53554 | 15910 ft | 349 kts | 218° |
| 2026-04-26 17:28 | 65.26249 | -18.57071 | 16557 ft | 352 kts | 218° |
| 2026-04-26 17:28 | 65.24289 | -18.60617 | 17217 ft | 355 kts | 218° |
| 2026-04-26 17:28 | 65.22312 | -18.64189 | 17877 ft | 358 kts | 218° |
| 2026-04-26 17:29 | 65.20330 | -18.67825 | 18475 ft | 361 kts | 221° |
| 2026-04-26 17:29 | 65.19124 | -18.70562 | 18834 ft | 363 kts | 227° |
| 2026-04-26 17:29 | 65.16980 | -18.76827 | 19585 ft | 367 kts | 232° |
| 2026-04-26 17:29 | 65.15375 | -18.81583 | 20153 ft | 370 kts | 231° |
| 2026-04-26 17:30 | 65.13749 | -18.86364 | 20719 ft | 373 kts | 231° |
| 2026-04-26 17:30 | 65.12107 | -18.91170 | 21262 ft | 376 kts | 231° |
| 2026-04-26 17:30 | 65.10448 | -18.96009 | 21818 ft | 379 kts | 231° |
| 2026-04-26 17:30 | 65.08777 | -19.00882 | 22343 ft | 382 kts | 231° |
| 2026-04-26 17:31 | 65.07093 | -19.05794 | 22854 ft | 385 kts | 231° |
| 2026-04-26 17:31 | 65.05398 | -19.10741 | 23359 ft | 388 kts | 231° |
| 2026-04-26 17:31 | 65.03689 | -19.15722 | 23817 ft | 391 kts | 231° |
| 2026-04-26 17:31 | 65.01966 | -19.20734 | 24236 ft | 394 kts | 231° |
| 2026-04-26 17:32 | 65.00231 | -19.25764 | 24664 ft | 396 kts | 231° |
| 2026-04-26 17:32 | 64.98484 | -19.30815 | 25080 ft | 398 kts | 231° |
| 2026-04-26 17:32 | 64.96721 | -19.35884 | 25480 ft | 401 kts | 231° |
| 2026-04-26 17:32 | 64.94944 | -19.40977 | 25880 ft | 403 kts | 231° |
| 2026-04-26 17:33 | 64.93178 | -19.46023 | 26289 ft | 406 kts | 231° |
| 2026-04-26 17:33 | 64.91377 | -19.51169 | 26677 ft | 408 kts | 232° |
| 2026-04-26 17:33 | 64.89565 | -19.56350 | 27063 ft | 411 kts | 232° |
| 2026-04-26 17:34 | 64.85902 | -19.66783 | 27835 ft | 416 kts | 232° |
| 2026-04-26 17:34 | 64.84052 | -19.72031 | 27983 ft | 414 kts | 232° |
| 2026-04-26 17:34 | 64.82232 | -19.77177 | 28004 ft | 407 kts | 232° |
| 2026-04-26 17:35 | 64.78624 | -19.87330 | 28001 ft | 404 kts | 232° |
| 2026-04-26 17:35 | 64.75027 | -19.97425 | 28001 ft | 403 kts | 232° |
| 2026-04-26 17:35 | 64.73225 | -20.02460 | 27998 ft | 403 kts | 232° |
| 2026-04-26 17:36 | 64.71422 | -20.07488 | 27995 ft | 403 kts | 232° |
| 2026-04-26 17:36 | 64.69618 | -20.12506 | 27993 ft | 403 kts | 232° |
| 2026-04-26 17:36 | 64.67813 | -20.17517 | 27989 ft | 403 kts | 232° |
| 2026-04-26 17:36 | 64.66004 | -20.22528 | 27989 ft | 403 kts | 232° |
| 2026-04-26 17:37 | 64.64196 | -20.27522 | 27996 ft | 403 kts | 231° |
| 2026-04-26 17:37 | 64.62387 | -20.32508 | 27987 ft | 403 kts | 231° |
| 2026-04-26 17:37 | 64.60579 | -20.37488 | 27985 ft | 403 kts | 231° |
| 2026-04-26 17:38 | 64.57180 | -20.47788 | 27919 ft | 401 kts | 242° |
| 2026-04-26 17:38 | 64.55817 | -20.53420 | 27642 ft | 398 kts | 242° |
| 2026-04-26 17:38 | 64.54473 | -20.59014 | 27323 ft | 393 kts | 242° |
| 2026-04-26 17:38 | 64.53188 | -20.64378 | 26862 ft | 389 kts | 242° |
| 2026-04-26 17:39 | 64.51877 | -20.69844 | 26377 ft | 385 kts | 242° |
| 2026-04-26 17:39 | 64.50575 | -20.75243 | 25890 ft | 381 kts | 242° |
| 2026-04-26 17:39 | 64.49279 | -20.80580 | 25428 ft | 378 kts | 242° |
| 2026-04-26 17:39 | 64.47990 | -20.85874 | 24957 ft | 376 kts | 242° |
| 2026-04-26 17:40 | 64.46910 | -20.91322 | 24596 ft | 368 kts | 257° |
| 2026-04-26 17:40 | 64.46750 | -20.95176 | 24542 ft | 360 kts | 274° |
| 2026-04-26 17:40 | 64.47492 | -21.02579 | 24561 ft | 352 kts | 282° |
| 2026-04-26 17:40 | 64.47894 | -21.08179 | 24599 ft | 353 kts | 273° |
| 2026-04-26 17:41 | 64.47713 | -21.13860 | 23885 ft | 361 kts | 255° |
| 2026-04-26 17:41 | 64.46630 | -21.19185 | 22860 ft | 372 kts | 234° |
| 2026-04-26 17:41 | 64.44978 | -21.23826 | 21786 ft | 374 kts | 231° |
| 2026-04-26 17:41 | 64.43297 | -21.28442 | 20747 ft | 375 kts | 231° |
| 2026-04-26 17:42 | 64.41626 | -21.33061 | 19818 ft | 373 kts | 231° |
| 2026-04-26 17:42 | 64.39994 | -21.37594 | 19337 ft | 359 kts | 231° |
| 2026-04-26 17:42 | 64.38455 | -21.41874 | 18902 ft | 345 kts | 231° |
| 2026-04-26 17:42 | 64.36948 | -21.46057 | 18462 ft | 332 kts | 230° |
| 2026-04-26 17:43 | 64.35497 | -21.50080 | 18021 ft | 321 kts | 230° |
| 2026-04-26 17:43 | 64.34069 | -21.54025 | 17591 ft | 320 kts | 230° |
| 2026-04-26 17:43 | 64.32645 | -21.57950 | 17173 ft | 318 kts | 230° |
| 2026-04-26 17:43 | 64.31226 | -21.61846 | 16768 ft | 317 kts | 230° |
| 2026-04-26 17:44 | 64.29810 | -21.65723 | 16345 ft | 315 kts | 230° |
| 2026-04-26 17:44 | 64.28404 | -21.69562 | 15932 ft | 312 kts | 230° |
| 2026-04-26 17:44 | 64.27007 | -21.73368 | 15522 ft | 310 kts | 230° |
| 2026-04-26 17:44 | 64.25618 | -21.77149 | 15106 ft | 308 kts | 230° |
| 2026-04-26 17:45 | 64.24310 | -21.81040 | 14693 ft | 307 kts | 237° |
| 2026-04-26 17:45 | 64.23369 | -21.85440 | 14280 ft | 307 kts | 249° |
| 2026-04-26 17:45 | 64.22849 | -21.90203 | 13830 ft | 309 kts | 260° |
| 2026-04-26 17:45 | 64.22647 | -21.95115 | 13364 ft | 309 kts | 263° |
| 2026-04-26 17:46 | 64.22452 | -22.00014 | 12910 ft | 307 kts | 262° |
| 2026-04-26 17:46 | 64.22247 | -22.04887 | 12467 ft | 306 kts | 262° |
| 2026-04-26 17:46 | 64.22037 | -22.09737 | 12016 ft | 305 kts | 262° |
| 2026-04-26 17:46 | 64.21824 | -22.14570 | 11589 ft | 303 kts | 261° |
| 2026-04-26 17:47 | 64.21613 | -22.19388 | 11155 ft | 303 kts | 261° |
| 2026-04-26 17:47 | 64.21473 | -22.22570 | 10864 ft | 302 kts | 261° |
| 2026-04-26 17:47 | 64.21193 | -22.28984 | 10340 ft | 300 kts | 261° |
| 2026-04-26 17:47 | 64.20988 | -22.33663 | 10196 ft | 290 kts | 261° |
| 2026-04-26 17:48 | 64.20787 | -22.38227 | 10044 ft | 285 kts | 261° |
| 2026-04-26 17:48 | 64.20584 | -22.42746 | 9981 ft | 285 kts | 261° |
| 2026-04-26 17:48 | 64.20380 | -22.47270 | 9859 ft | 285 kts | 261° |
| 2026-04-26 17:48 | 64.20175 | -22.51826 | 9385 ft | 288 kts | 261° |
| 2026-04-26 17:49 | 64.19969 | -22.56394 | 9011 ft | 286 kts | 261° |
| 2026-04-26 17:49 | 64.19764 | -22.60932 | 8619 ft | 285 kts | 261° |
| 2026-04-26 17:49 | 64.19556 | -22.65443 | 8234 ft | 284 kts | 260° |
| 2026-04-26 17:49 | 64.19344 | -22.69919 | 7914 ft | 280 kts | 260° |
| 2026-04-26 17:50 | 64.19135 | -22.74307 | 7399 ft | 279 kts | 260° |
| 2026-04-26 17:50 | 64.18928 | -22.78714 | 7047 ft | 277 kts | 260° |
| 2026-04-26 17:50 | 64.18722 | -22.83093 | 6704 ft | 276 kts | 260° |
| 2026-04-26 17:50 | 64.18338 | -22.87357 | 6327 ft | 271 kts | 246° |
| 2026-04-26 17:51 | 64.17434 | -22.91090 | 5933 ft | 266 kts | 228° |
| 2026-04-26 17:51 | 64.16105 | -22.93973 | 5506 ft | 262 kts | 211° |
| 2026-04-26 17:51 | 64.14512 | -22.95940 | 5153 ft | 259 kts | 203° |
| 2026-04-26 17:51 | 64.12899 | -22.97750 | 4775 ft | 259 kts | 203° |
| 2026-04-26 17:52 | 64.11292 | -22.99553 | 4370 ft | 259 kts | 203° |
| 2026-04-26 17:52 | 64.09700 | -23.01347 | 4201 ft | 250 kts | 203° |
| 2026-04-26 17:52 | 64.08170 | -23.03082 | 4066 ft | 241 kts | 203° |
| 2026-04-26 17:52 | 64.06646 | -23.04302 | 3933 ft | 224 kts | 186° |
| 2026-04-26 17:53 | 64.05141 | -23.04228 | 3697 ft | 214 kts | 166° |
| 2026-04-26 17:53 | 64.03739 | -23.03161 | 3394 ft | 212 kts | 159° |
| 2026-04-26 17:53 | 64.02373 | -23.01995 | 3135 ft | 208 kts | 159° |
| 2026-04-26 17:54 | 63.99826 | -22.99819 | 2820 ft | 180 kts | 157° |
| 2026-04-26 17:54 | 63.98860 | -22.98138 | 2734 ft | 176 kts | 128° |
| 2026-04-26 17:54 | 63.98463 | -22.95519 | 2580 ft | 177 kts | 99° |
| 2026-04-26 17:54 | 63.98464 | -22.92774 | 2361 ft | 169 kts | 96° |
| 2026-04-26 17:55 | 63.98469 | -22.90188 | 2167 ft | 156 kts | 97° |
| 2026-04-26 17:55 | 63.98475 | -22.87839 | 1997 ft | 141 kts | 98° |
| 2026-04-26 17:55 | 63.98478 | -22.85669 | 1889 ft | 134 kts | 98° |
| 2026-04-26 17:55 | 63.98481 | -22.83555 | 1724 ft | 133 kts | 98° |
| 2026-04-26 17:56 | 63.98485 | -22.81477 | 1553 ft | 127 kts | 98° |
| 2026-04-26 17:56 | 63.98490 | -22.77606 | 1198 ft | 119 kts | 98° |
| 2026-04-26 17:57 | 63.98494 | -22.73913 | 877 ft | 116 kts | 97° |
| 2026-04-26 17:57 | 63.98497 | -22.72086 | 723 ft | 115 kts | 97° |
| 2026-04-26 17:57 | 63.98498 | -22.70252 | 567 ft | 115 kts | 96° |
| 2026-04-26 17:57 | 63.98503 | -22.68438 | 421 ft | 116 kts | 95° |
| 2026-04-26 17:58 | 63.98501 | -22.63158 | 178 ft | 78 kts | 89° |
| 2026-04-26 17:59 | 63.98503 | -22.61882 | 181 ft | 28 kts | 90° |
| 2026-04-26 17:59 | 63.98539 | -22.61465 | 179 ft | 21 kts | 72° |
| 2026-04-26 17:59 | 63.98580 | -22.61267 | 181 ft | 5 kts | 60° |
| 2026-04-26 17:59 | 63.98591 | -22.61222 | 181 ft | 3 kts | 58° |
| 2026-04-26 18:00 | 63.98600 | -22.61192 | 181 ft | 3 kts | 55° |
| 2026-04-26 18:00 | 63.98620 | -22.61148 | 180 ft | 4 kts | 34° |
| 2026-04-26 18:00 | 63.98669 | -22.61131 | 180 ft | 8 kts | 1° |
| 2026-04-26 18:00 | 63.98722 | -22.61131 | 180 ft | 7 kts | 359° |
| 2026-04-26 18:01 | 63.98789 | -22.61133 | 180 ft | 11 kts | 359° |
| 2026-04-26 18:01 | 63.98869 | -22.61135 | 180 ft | 13 kts | 1° |
| 2026-04-26 18:01 | 63.98955 | -22.61131 | 180 ft | 12 kts | 1° |
| 2026-04-26 18:01 | 63.99030 | -22.61130 | 180 ft | 10 kts | 360° |
| 2026-04-26 18:02 | 63.99100 | -22.61130 | 180 ft | 11 kts | 359° |
| 2026-04-26 18:02 | 63.99126 | -22.61132 | 180 ft | 11 kts | 356° |
| 2026-04-26 18:02 | 63.99171 | -22.61322 | 180 ft | 8 kts | 268° |
| 2026-04-26 18:02 | 63.99170 | -22.61437 | 180 ft | 7 kts | 270° |
| 2026-04-26 18:03 | 63.99171 | -22.61531 | 180 ft | 6 kts | 271° |
| 2026-04-26 18:03 | 63.99172 | -22.61629 | 180 ft | 6 kts | 271° |
| 2026-04-26 18:03 | 63.99172 | -22.61719 | 180 ft | 5 kts | 270° |
| 2026-04-26 18:03 | 63.99172 | -22.61796 | 180 ft | 6 kts | 269° |
| 2026-04-26 18:04 | 63.99172 | -22.61890 | 180 ft | 6 kts | 271° |
| 2026-04-26 18:04 | 63.99182 | -22.61977 | 180 ft | 5 kts | 311° |
| 2026-04-26 18:04 | 63.99215 | -22.61997 | 180 ft | 5 kts | 357° |
| 2026-04-26 18:05 | 63.99218 | -22.61997 | 180 ft | 0 kts | 357° |
| 2026-04-26 18:05 | 63.99226 | -22.61998 | 180 ft | 4 kts | 357° |
| 2026-04-26 18:05 | 63.99266 | -22.62003 | 180 ft | 6 kts | 356° |
| 2026-04-26 18:06 | 63.99306 | -22.62003 | 180 ft | 5 kts | 2° |
| 2026-04-26 18:06 | 63.99329 | -22.62045 | 180 ft | 6 kts | 284° |
| 2026-04-26 18:06 | 63.99332 | -22.62136 | 180 ft | 5 kts | 269° |
| 2026-04-26 18:06 | 63.99332 | -22.62182 | 180 ft | 0 kts | 269° |